createdAt,value
2019-03-23T00:01:58.632Z,60.63
2019-03-23T00:04:28.930Z,67.23
2019-03-23T00:06:59.363Z,64.33
2019-03-23T00:09:29.654Z,65.13
2019-03-23T00:12:00.399Z,65.10
2019-03-23T00:14:30.720Z,62.30
2019-03-23T00:17:01.071Z,58.67
2019-03-23T00:19:32.840Z,62.00
2019-03-23T00:22:03.188Z,65.43
2019-03-23T00:24:33.864Z,62.73
2019-03-23T00:27:04.290Z,66.70
2019-03-23T00:29:34.616Z,63.77
2019-03-23T00:32:05.046Z,66.27
2019-03-23T00:34:34.831Z,65.17
2019-03-23T00:37:05.482Z,62.77
2019-03-23T00:39:36.815Z,64.87
2019-03-23T00:42:07.116Z,70.03
2019-03-23T00:44:37.373Z,65.27
2019-03-23T00:47:07.736Z,67.83
2019-03-23T00:49:37.279Z,67.33
2019-03-23T00:52:07.797Z,64.70
2019-03-23T00:54:38.935Z,67.70
2019-03-23T00:57:08.528Z,65.40
2019-03-23T00:59:38.744Z,70.47
2019-03-23T01:02:09.318Z,68.17
2019-03-23T01:04:38.830Z,72.20
2019-03-23T01:07:09.100Z,74.40
2019-03-23T01:09:39.420Z,68.20
2019-03-23T01:12:09.775Z,67.03
2019-03-23T01:14:40.039Z,73.00
2019-03-23T01:17:10.335Z,66.80
2019-03-23T01:19:40.591Z,72.10
2019-03-23T01:22:10.899Z,71.80
2019-03-23T01:24:40.430Z,69.43
2019-03-23T01:27:10.014Z,72.47
2019-03-23T01:29:40.374Z,68.03
2019-03-23T01:32:10.834Z,72.93
2019-03-23T01:34:40.620Z,67.70
2019-03-23T01:37:10.886Z,67.67
2019-03-23T01:39:41.446Z,80.60
2019-03-23T01:42:11.682Z,74.53
2019-03-23T01:44:42.103Z,79.53
2019-03-23T01:47:13.320Z,74.97
2019-03-23T01:49:43.872Z,73.60
2019-03-23T01:52:14.540Z,77.90
2019-03-23T01:54:44.338Z,72.50
2019-03-23T01:57:14.952Z,73.93
2019-03-23T01:59:44.682Z,80.03
2019-03-23T02:02:14.599Z,78.03
2019-03-23T02:04:47.145Z,84.40
2019-03-23T02:07:17.211Z,90.43
2019-03-23T02:09:47.347Z,81.87
2019-03-23T02:12:17.588Z,84.40
2019-03-23T02:14:47.832Z,84.70
2019-03-23T02:17:18.030Z,87.57
2019-03-23T02:19:48.548Z,80.87
2019-03-23T02:22:18.645Z,80.83
2019-03-23T02:24:48.115Z,86.70
2019-03-23T02:27:18.225Z,98.00
2019-03-23T02:29:47.837Z,98.87
2019-03-23T02:32:17.974Z,98.07
2019-03-23T02:34:48.221Z,104.53
2019-03-23T02:37:27.740Z,94.83
2019-03-23T02:39:49.621Z,104.93
2019-03-23T02:42:19.831Z,97.50
2019-03-23T02:44:50.077Z,100.47
2019-03-23T02:47:20.420Z,104.07
2019-03-23T02:49:49.925Z,101.00
2019-03-23T02:52:20.088Z,91.80
2019-03-23T02:54:50.441Z,106.37
2019-03-23T02:57:20.056Z,101.43
2019-03-23T02:59:50.211Z,104.60
2019-03-23T03:02:20.438Z,100.13
2019-03-23T03:04:50.737Z,101.13
2019-03-23T03:07:21.007Z,104.73
2019-03-23T03:09:50.533Z,109.40
2019-03-23T03:12:20.770Z,109.27
2019-03-23T03:14:51.007Z,106.73
2019-03-23T03:17:20.636Z,102.67
2019-03-23T03:19:54.813Z,104.70
2019-03-23T03:22:25.015Z,108.07
2019-03-23T03:24:55.253Z,110.03
2019-03-23T03:27:25.505Z,105.83
2019-03-23T03:29:55.704Z,115.23
2019-03-23T03:32:25.997Z,126.03
2019-03-23T03:34:55.605Z,124.10
2019-03-23T03:37:25.727Z,121.63
2019-03-23T03:39:55.980Z,118.93
2019-03-23T03:42:25.667Z,122.30
2019-03-23T03:44:55.754Z,126.33
2019-03-23T03:47:25.973Z,130.23
2019-03-23T03:49:56.195Z,122.27
2019-03-23T03:52:25.692Z,117.40
2019-03-23T03:54:55.847Z,119.97
2019-03-23T03:57:26.093Z,122.30
2019-03-23T03:59:56.522Z,123.33
2019-03-23T04:02:26.013Z,120.73
2019-03-23T04:04:56.126Z,112.60
2019-03-23T04:07:25.608Z,127.73
2019-03-23T04:09:55.745Z,116.00
2019-03-23T04:12:26.148Z,118.57
2019-03-23T04:14:56.350Z,127.50
2019-03-23T04:17:26.568Z,115.30
2019-03-23T04:19:56.089Z,111.63
2019-03-23T04:22:25.575Z,125.00
2019-03-23T04:24:55.744Z,121.53
2019-03-23T04:27:25.974Z,113.70
2019-03-23T04:29:55.563Z,121.97
2019-03-23T04:32:24.990Z,121.97
2019-03-23T04:34:54.430Z,134.13
2019-03-23T04:37:23.821Z,127.47
2019-03-23T04:39:54.002Z,129.93
2019-03-23T04:42:24.177Z,132.63
2019-03-23T04:44:54.384Z,127.97
2019-03-23T04:47:24.252Z,119.50
2019-03-23T04:49:54.382Z,114.37
2019-03-23T04:52:24.692Z,121.23
2019-03-23T04:54:54.185Z,112.77
2019-03-23T04:57:24.311Z,123.60
2019-03-23T04:59:53.998Z,120.07
2019-03-23T05:02:24.119Z,119.80
2019-03-23T05:04:54.283Z,118.87
2019-03-23T05:07:24.574Z,120.07
2019-03-23T05:09:54.776Z,115.70
2019-03-23T05:12:24.280Z,129.63
2019-03-23T05:14:53.808Z,138.17
2019-03-23T05:17:23.906Z,134.07
2019-03-23T05:19:53.396Z,127.43
2019-03-23T05:22:23.799Z,132.20
2019-03-23T05:24:54.011Z,129.40
2019-03-23T05:27:24.395Z,123.17
2019-03-23T05:29:53.996Z,128.90
2019-03-23T05:32:24.126Z,135.77
2019-03-23T05:34:54.387Z,118.77
2019-03-23T05:37:24.576Z,119.23
2019-03-23T05:39:55.097Z,127.00
2019-03-23T05:42:25.312Z,125.07
2019-03-23T05:44:55.498Z,124.23
2019-03-23T05:47:25.668Z,123.93
2019-03-23T05:49:55.850Z,127.87
2019-03-23T05:52:26.041Z,138.33
2019-03-23T05:54:56.224Z,137.93
2019-03-23T05:57:26.414Z,123.10
2019-03-23T05:59:56.621Z,140.97
2019-03-23T06:02:26.086Z,128.30
2019-03-23T06:04:55.493Z,134.57
2019-03-23T06:07:25.053Z,123.67
2019-03-23T06:09:55.140Z,121.67
2019-03-23T06:12:24.627Z,134.83
2019-03-23T06:14:54.877Z,122.43
2019-03-23T06:17:25.209Z,126.50
2019-03-23T06:19:55.407Z,127.83
2019-03-23T06:22:24.802Z,123.83
2019-03-23T06:24:54.189Z,129.73
2019-03-23T06:27:23.615Z,133.30
2019-03-23T06:29:53.679Z,125.27
2019-03-23T06:32:23.905Z,131.27
2019-03-23T06:34:54.109Z,125.10
2019-03-23T06:37:24.334Z,127.10
2019-03-23T06:39:54.565Z,121.63
2019-03-23T06:42:24.740Z,127.63
2019-03-23T06:44:54.907Z,128.93
2019-03-23T06:47:25.095Z,130.83
2019-03-23T06:49:54.609Z,136.50
2019-03-23T06:52:24.737Z,122.67
2019-03-23T06:54:54.314Z,140.07
2019-03-23T06:57:24.745Z,130.03
2019-03-23T06:59:54.266Z,132.40
2019-03-23T07:02:24.477Z,135.00
2019-03-23T07:04:54.639Z,137.03
2019-03-23T07:07:24.869Z,135.97
2019-03-23T07:09:55.340Z,139.77
2019-03-23T07:12:25.694Z,130.90
2019-03-23T07:14:55.162Z,135.67
2019-03-23T07:17:24.807Z,135.57
2019-03-23T07:19:54.264Z,145.60
2019-03-23T07:22:23.784Z,135.63
2019-03-23T07:24:53.189Z,142.43
2019-03-23T07:27:22.626Z,146.63
2019-03-23T07:29:52.069Z,138.60
2019-03-23T07:32:22.489Z,140.60
2019-03-23T07:34:52.747Z,147.43
2019-03-23T07:37:22.274Z,149.00
2019-03-23T07:39:51.709Z,150.90
2019-03-23T07:42:21.300Z,145.10
2019-03-23T07:44:50.931Z,139.13
2019-03-23T07:47:21.074Z,137.20
2019-03-23T07:49:50.693Z,140.07
2019-03-23T07:52:20.118Z,133.77
2019-03-23T07:54:50.199Z,138.03
2019-03-23T07:57:20.387Z,129.00
2019-03-23T07:59:49.870Z,134.00
2019-03-23T08:02:20.025Z,134.50
2019-03-23T08:04:50.939Z,129.50
2019-03-23T08:07:20.681Z,133.53
2019-03-23T08:09:50.893Z,132.13
2019-03-23T08:12:20.648Z,130.37
2019-03-23T08:14:50.080Z,127.90
2019-03-23T08:17:19.555Z,134.80
2019-03-23T08:19:49.939Z,131.97
2019-03-23T08:22:20.279Z,132.73
2019-03-23T08:24:50.579Z,135.63
2019-03-23T08:27:20.214Z,128.47
2019-03-23T08:29:50.385Z,130.93
2019-03-23T08:32:22.163Z,120.77
2019-03-23T08:34:52.478Z,126.97
2019-03-23T08:37:22.721Z,121.47
2019-03-23T08:39:52.944Z,123.73
2019-03-23T08:42:23.203Z,125.03
2019-03-23T08:44:52.782Z,122.67
2019-03-23T08:47:22.958Z,125.60
2019-03-23T08:49:53.157Z,117.30
2019-03-23T08:52:22.723Z,102.60
2019-03-23T08:54:53.957Z,100.90
2019-03-23T08:57:24.362Z,111.27
2019-03-23T08:59:53.899Z,100.77
2019-03-23T09:02:24.002Z,111.40
2019-03-23T09:04:53.570Z,110.40
2019-03-23T09:07:23.657Z,97.17
2019-03-23T09:09:59.148Z,90.97
2019-03-23T09:12:25.013Z,84.17
2019-03-23T09:14:54.442Z,102.33
2019-03-23T09:17:24.566Z,100.47
2019-03-23T09:19:54.850Z,103.20
2019-03-23T09:22:25.066Z,88.97
2019-03-23T09:24:57.130Z,86.00
2019-03-23T09:27:26.330Z,86.50
2019-03-23T09:29:56.553Z,85.77
2019-03-23T09:32:26.794Z,79.87
2019-03-23T09:34:56.409Z,85.30
2019-03-23T09:37:25.850Z,87.33
2019-03-23T09:39:56.112Z,81.03
2019-03-23T09:42:25.618Z,80.83
2019-03-23T09:44:55.101Z,81.10
2019-03-23T09:47:25.198Z,75.70
2019-03-23T09:49:55.544Z,67.70
2019-03-23T09:52:25.005Z,70.77
2019-03-23T09:54:54.656Z,64.63
2019-03-23T09:57:24.131Z,70.80
2019-03-23T09:59:54.213Z,69.30
2019-03-23T10:02:24.337Z,63.70
2019-03-23T10:04:54.442Z,64.37
2019-03-23T10:07:24.673Z,70.27
2019-03-23T10:09:54.952Z,74.07
2019-03-23T10:12:25.259Z,71.57
2019-03-23T10:14:55.441Z,69.90
2019-03-23T10:17:25.641Z,83.53
2019-03-23T10:19:55.963Z,69.53
2019-03-23T10:22:25.908Z,72.50
2019-03-23T10:24:56.212Z,69.40
2019-03-23T10:27:26.390Z,68.73
2019-03-23T10:29:56.801Z,67.27
2019-03-23T10:32:26.317Z,70.77
2019-03-23T10:34:55.725Z,75.07
2019-03-23T10:37:26.195Z,75.10
2019-03-23T10:39:55.853Z,78.70
2019-03-23T10:42:25.967Z,69.60
2019-03-23T10:44:56.161Z,71.60
2019-03-23T10:47:26.462Z,66.70
2019-03-23T10:49:56.747Z,61.40
2019-03-23T10:52:26.303Z,57.90
2019-03-23T10:54:59.926Z,57.87
2019-03-23T10:57:31.939Z,59.73
2019-03-23T11:00:01.776Z,59.60
2019-03-23T11:02:31.362Z,57.40
2019-03-23T11:05:00.770Z,61.33
2019-03-23T11:07:31.910Z,58.53
2019-03-23T11:10:01.420Z,54.23
2019-03-23T11:12:32.230Z,61.73
2019-03-23T11:15:02.454Z,61.83
2019-03-23T11:17:32.779Z,68.90
2019-03-23T11:20:03.104Z,69.20
2019-03-23T11:22:33.411Z,66.17
2019-03-23T11:25:03.997Z,62.30
2019-03-23T11:27:34.563Z,60.00
2019-03-23T11:30:04.487Z,57.30
2019-03-23T11:32:34.890Z,56.20
2019-03-23T11:35:04.759Z,58.97
2019-03-23T11:37:35.137Z,59.67
2019-03-23T11:40:05.008Z,55.53
2019-03-23T11:42:34.481Z,50.60
2019-03-23T11:45:04.073Z,52.07
2019-03-23T11:47:34.166Z,55.30
2019-03-23T11:50:04.910Z,55.00
2019-03-23T11:52:36.073Z,58.93
2019-03-23T11:55:07.302Z,57.20
2019-03-23T11:57:37.551Z,51.67
2019-03-23T12:00:10.338Z,49.20
2019-03-23T12:02:40.006Z,50.03
2019-03-23T12:05:10.415Z,63.43
2019-03-23T12:07:40.791Z,59.17
2019-03-23T12:10:11.275Z,59.87
2019-03-23T12:12:41.495Z,54.20
2019-03-23T12:15:11.447Z,51.70
2019-03-23T12:17:40.857Z,52.63
2019-03-23T12:20:12.095Z,53.93
2019-03-23T12:22:42.584Z,57.17
2019-03-23T12:25:12.285Z,54.80
2019-03-23T12:27:42.511Z,50.07
2019-03-23T12:30:14.620Z,54.87
2019-03-23T12:32:44.907Z,54.23
2019-03-23T12:35:14.365Z,60.97
2019-03-23T12:37:44.591Z,59.40
2019-03-23T12:40:15.163Z,55.10
2019-03-23T12:42:45.808Z,55.27
2019-03-23T12:45:16.260Z,53.20
2019-03-23T12:47:46.515Z,50.03
2019-03-23T12:50:16.766Z,56.23
2019-03-23T12:55:12.460Z,51.53
2019-03-23T12:57:42.017Z,53.67
2019-03-23T13:00:13.147Z,60.23
2019-03-23T13:02:42.678Z,50.87
2019-03-23T13:05:13.352Z,54.83
2019-03-23T13:07:42.912Z,58.70
2019-03-23T13:10:13.357Z,54.87
2019-03-23T13:12:43.664Z,53.03
2019-03-23T13:15:14.397Z,53.27
2019-03-23T13:17:44.594Z,56.20
2019-03-23T13:20:14.963Z,52.80
2019-03-23T13:22:44.545Z,55.80
2019-03-23T13:25:14.081Z,57.57
2019-03-23T13:27:44.248Z,55.50
2019-03-23T13:30:15.524Z,53.10
2019-03-23T13:32:45.258Z,55.10
2019-03-23T13:35:14.831Z,56.83
2019-03-23T13:37:45.358Z,59.47
2019-03-23T13:40:16.203Z,54.80
2019-03-23T13:42:46.464Z,54.77
2019-03-23T13:45:17.342Z,53.40
2019-03-23T13:47:47.838Z,55.63
2019-03-23T13:50:26.219Z,51.17
2019-03-23T13:52:56.410Z,51.13
2019-03-23T13:55:28.016Z,49.57
2019-03-23T13:58:08.682Z,42.10
2019-03-23T14:00:39.586Z,41.50
2019-03-23T14:03:09.158Z,39.43
2019-03-23T14:05:38.723Z,38.93
2019-03-23T14:08:08.244Z,41.13
2019-03-23T14:10:37.738Z,36.73
2019-03-23T14:13:08.022Z,37.33
2019-03-23T14:15:38.276Z,34.27
2019-03-23T14:18:08.526Z,34.97
2019-03-23T14:20:38.774Z,33.43
2019-03-23T14:23:08.456Z,34.37
2019-03-23T14:25:38.018Z,30.03
2019-03-23T14:28:08.359Z,33.23
2019-03-23T14:30:45.464Z,34.03
2019-03-23T14:33:15.089Z,31.17
2019-03-23T14:35:44.644Z,32.10
2019-03-23T14:38:14.897Z,32.33
2019-03-23T14:40:45.177Z,34.63
2019-03-23T14:43:15.934Z,31.10
2019-03-23T14:45:46.359Z,30.90
2019-03-23T14:48:16.796Z,33.50
2019-03-23T14:50:47.096Z,28.37
2019-03-23T14:53:16.607Z,28.27
2019-03-23T14:55:47.234Z,24.30
2019-03-23T14:58:17.408Z,30.07
2019-03-23T15:00:47.613Z,28.67
2019-03-23T15:03:17.824Z,29.33
2019-03-23T15:05:47.409Z,34.30
2019-03-23T15:08:16.881Z,30.00
2019-03-23T15:10:47.064Z,31.53
2019-03-23T15:13:17.329Z,29.40
2019-03-23T15:15:47.940Z,28.00
2019-03-23T15:18:18.028Z,24.30
2019-03-23T15:20:48.314Z,24.97
2019-03-23T15:23:18.494Z,28.17
2019-03-23T15:25:48.276Z,23.37
2019-03-23T15:28:17.810Z,23.67
2019-03-23T15:30:48.031Z,25.20
2019-03-23T15:33:18.394Z,27.50
2019-03-23T15:35:48.965Z,28.30
2019-03-23T15:38:18.710Z,29.60
2019-03-23T15:40:48.843Z,26.33
2019-03-23T15:43:19.191Z,28.70
2019-03-23T15:45:48.787Z,31.53
2019-03-23T15:48:18.920Z,28.77
2019-03-23T15:50:49.105Z,33.90
2019-03-23T15:53:19.267Z,55.37
2019-03-23T15:55:48.762Z,43.20
2019-03-23T15:58:18.323Z,37.00
2019-03-23T16:00:48.433Z,40.70
2019-03-23T16:03:18.607Z,31.90
2019-03-23T16:05:48.907Z,37.20
2019-03-23T16:08:18.374Z,31.37
2019-03-23T16:10:47.839Z,32.80
2019-03-23T16:13:18.012Z,33.63
2019-03-23T16:15:47.728Z,46.37
2019-03-23T16:18:17.851Z,31.97
2019-03-23T16:20:48.074Z,36.10
2019-03-23T16:23:18.258Z,37.00
2019-03-23T16:25:47.814Z,32.73
2019-03-23T16:28:17.906Z,29.57
2019-03-23T16:30:48.161Z,32.97
2019-03-23T16:33:18.359Z,32.90
2019-03-23T16:35:48.579Z,32.50
2019-03-23T16:38:18.883Z,32.13
2019-03-23T16:40:49.217Z,27.23
2019-03-23T16:43:19.559Z,33.30
2019-03-23T16:45:50.542Z,30.50
2019-03-23T16:48:21.112Z,30.10
2019-03-23T16:50:51.663Z,32.00
2019-03-23T16:53:21.896Z,34.57
2019-03-23T16:55:52.188Z,39.07
2019-03-23T16:58:22.373Z,55.50
2019-03-23T17:00:52.741Z,44.20
2019-03-23T17:03:22.506Z,35.23
2019-03-23T17:05:52.887Z,28.87
2019-03-23T17:08:23.253Z,35.70
2019-03-23T17:10:53.721Z,37.87
2019-03-23T17:13:24.098Z,38.87
2019-03-23T17:15:55.144Z,34.87
2019-03-23T17:18:25.614Z,30.57
2019-03-23T17:20:56.018Z,34.07
2019-03-23T17:23:26.416Z,37.47
2019-03-23T17:25:56.834Z,28.63
2019-03-23T17:28:26.303Z,30.37
2019-03-23T17:30:56.552Z,29.13
2019-03-23T17:33:26.896Z,26.90
2019-03-23T17:35:56.564Z,28.43
2019-03-23T17:38:26.902Z,32.47
2019-03-23T17:40:57.715Z,26.93
2019-03-23T17:43:27.328Z,28.37
2019-03-23T17:45:57.036Z,27.87
2019-03-23T17:48:29.093Z,25.50
2019-03-23T17:50:59.463Z,25.27
2019-03-23T17:53:29.825Z,28.70
2019-03-23T17:56:00.584Z,26.33
2019-03-23T17:58:30.127Z,30.97
2019-03-23T18:01:01.215Z,26.40
2019-03-23T18:03:30.783Z,29.53
2019-03-23T18:06:01.014Z,24.27
2019-03-23T18:08:31.517Z,28.67
2019-03-23T18:11:01.276Z,31.53
2019-03-23T18:13:31.562Z,26.20
2019-03-23T18:16:01.820Z,28.00
2019-03-23T18:18:33.730Z,30.30
2019-03-23T18:21:04.134Z,27.80
2019-03-23T18:23:34.453Z,26.23
2019-03-23T18:26:05.192Z,36.20
2019-03-23T18:28:35.535Z,28.70
2019-03-23T18:31:05.813Z,29.73
2019-03-23T18:33:36.078Z,30.30
2019-03-23T18:36:06.298Z,28.60
2019-03-23T18:38:36.469Z,28.53
2019-03-23T18:41:06.094Z,32.27
2019-03-23T18:43:35.632Z,25.40
2019-03-23T18:46:05.916Z,29.67
2019-03-23T18:48:36.235Z,26.80
2019-03-23T18:51:05.988Z,30.97
2019-03-23T18:53:36.170Z,30.20
2019-03-23T18:56:06.431Z,29.67
2019-03-23T18:58:36.778Z,33.47
2019-03-23T19:01:06.330Z,26.83
2019-03-23T19:03:35.750Z,33.03
2019-03-23T19:06:05.902Z,37.33
2019-03-23T19:08:36.770Z,33.03
2019-03-23T19:11:06.324Z,33.97
2019-03-23T19:13:38.117Z,35.17
2019-03-23T19:16:08.565Z,28.27
2019-03-23T19:18:38.914Z,31.43
2019-03-23T19:21:09.158Z,37.60
2019-03-23T19:23:39.603Z,34.80
2019-03-23T19:26:09.990Z,29.67
2019-03-23T19:28:40.374Z,40.40
2019-03-23T19:31:11.766Z,30.90
2019-03-23T19:33:42.051Z,24.87
2019-03-23T19:36:11.548Z,30.80
2019-03-23T19:38:42.279Z,35.73
2019-03-23T19:41:12.670Z,29.57
2019-03-23T19:43:48.854Z,23.37
2019-03-23T19:46:14.361Z,33.60
2019-03-23T19:48:46.063Z,26.00
2019-03-23T19:51:17.272Z,28.33
2019-03-23T19:53:48.258Z,34.60
2019-03-23T19:56:26.430Z,25.27
2019-03-23T19:58:58.937Z,26.23
2019-03-23T20:01:28.899Z,24.70
2019-03-23T20:04:00.506Z,28.67
2019-03-23T20:06:30.965Z,24.93
2019-03-23T20:09:01.516Z,23.37
2019-03-23T20:11:33.692Z,24.80
2019-03-23T20:14:04.320Z,28.97
2019-03-23T20:16:34.870Z,32.07
2019-03-23T20:19:05.521Z,25.83
2019-03-23T20:21:35.187Z,21.73
2019-03-23T20:24:05.351Z,33.53
2019-03-23T20:26:36.040Z,28.97
2019-03-23T20:29:06.280Z,25.00
2019-03-23T20:31:36.968Z,45.40
2019-03-23T20:34:06.832Z,42.43
2019-03-23T20:36:36.433Z,38.93
2019-03-23T20:39:07.883Z,34.87
2019-03-23T20:41:40.210Z,28.13
2019-03-23T20:44:11.076Z,29.40
2019-03-23T20:46:41.578Z,23.53
2019-03-23T20:49:11.355Z,23.37
2019-03-23T20:51:41.824Z,22.00
2019-03-23T20:54:13.716Z,29.83
2019-03-23T20:56:43.834Z,26.50
2019-03-23T20:59:13.312Z,28.63
2019-03-23T21:01:43.841Z,18.77
2019-03-23T21:04:14.555Z,25.07
2019-03-23T21:06:45.410Z,26.60
2019-03-23T21:09:16.385Z,24.70
2019-03-23T21:11:46.258Z,22.20
2019-03-23T21:14:20.383Z,28.13
2019-03-23T21:16:49.092Z,27.63
2019-03-23T21:19:20.635Z,26.60
2019-03-23T21:21:51.789Z,26.27
2019-03-23T21:24:24.339Z,20.50
2019-03-23T21:26:56.399Z,23.50
2019-03-23T21:29:26.728Z,35.70
2019-03-23T21:31:56.294Z,41.53
2019-03-23T21:34:26.663Z,41.77
2019-03-23T21:36:56.996Z,52.67
2019-03-23T21:39:26.714Z,45.60
2019-03-23T21:41:56.186Z,24.17
2019-03-23T21:44:30.854Z,24.30
2019-03-23T21:46:58.602Z,19.00
2019-03-23T21:49:28.943Z,22.27
2019-03-23T21:51:59.524Z,23.47
2019-03-23T21:54:29.870Z,21.03
2019-03-23T21:57:00.371Z,26.07
2019-03-23T21:59:29.943Z,18.87
2019-03-23T22:02:00.339Z,27.77
2019-03-23T22:04:31.022Z,26.30
2019-03-23T22:07:00.611Z,24.13
2019-03-23T22:09:30.748Z,22.37
2019-03-23T22:12:00.983Z,20.40
2019-03-23T22:14:41.168Z,25.83
2019-03-23T22:17:02.403Z,24.23
2019-03-23T22:19:32.530Z,22.97
2019-03-23T22:22:02.777Z,26.67
2019-03-23T22:24:32.268Z,24.43
2019-03-23T22:27:02.411Z,16.13
2019-03-23T22:29:32.678Z,26.10
2019-03-23T22:32:02.230Z,23.70
2019-03-23T22:34:32.359Z,21.80
2019-03-23T22:37:02.857Z,25.40
2019-03-23T22:39:33.174Z,27.17
2019-03-23T22:42:03.646Z,17.57
2019-03-23T22:44:33.982Z,21.03
2019-03-23T22:47:04.313Z,23.97
2019-03-23T22:49:34.577Z,68.73
2019-03-23T22:52:04.948Z,30.10
2019-03-23T22:54:35.344Z,31.97
2019-03-23T22:57:04.972Z,23.60
2019-03-23T22:59:34.490Z,27.03
2019-03-23T23:02:05.531Z,14.23
2019-03-23T23:04:36.860Z,17.47
2019-03-23T23:07:07.051Z,23.70
2019-03-23T23:09:37.433Z,21.87
2019-03-23T23:12:08.042Z,16.47
2019-03-23T23:14:37.737Z,19.23
2019-03-23T23:17:07.936Z,16.97
2019-03-23T23:19:38.167Z,14.77
2019-03-23T23:22:07.880Z,19.47
2019-03-23T23:24:37.267Z,21.77
2019-03-23T23:27:07.446Z,19.87
2019-03-23T23:29:37.744Z,21.80
2019-03-23T23:32:08.125Z,19.20
2019-03-23T23:34:37.667Z,15.43
2019-03-23T23:37:07.831Z,18.53
2019-03-23T23:39:38.080Z,19.63
2019-03-23T23:42:08.299Z,26.57
2019-03-23T23:44:38.530Z,18.80
2019-03-23T23:47:08.803Z,21.10
2019-03-23T23:49:39.154Z,24.27
2019-03-23T23:52:09.698Z,17.20
2019-03-23T23:54:39.992Z,17.63
2019-03-23T23:57:09.506Z,16.10
2019-03-23T23:59:39.816Z,18.43
